Decoded Metar for SBCG (CAMPO GRANDE in BRAZIL) (IATA:CGR) | Meteo·Mobile Aviation Weather
aviador You're here:

SBCG Decoded Metar

CAMPO GRANDE in BRAZIL
Report Time2019-05-25 23:00:00
UTC Time2019-05-25 23:23:26
Flight Rules vfr VFR
Wind080° at 07 kt
W.Decomp.*RWY 06: 5.7 kt HW 4.1 kt RCW
Visibility9999 m
Phenomena:N/A
Clouds:N/A
Expected CloudBase > 2,400 ft AGL from Temp-Dew spread
CeilingNone
Temp16°C (ISA +5)
Dew Point10°C (68% RH)
AAT13.6°C
QNH1016 hPa
Density Alt2,484 ft
Elevation1,860 ft
Report Wrong Elevation
Raw Report
METAR SBCG 252300Z 08007KT CAVOK 16/10 Q1016=

Extra information for SBCG:More info

Metar Taf Metar & Taf Last 4 Metars F.Rules Stats Wind Profile Meteogram Temp Stats Airport Information Weather charts Add Link Nearby VenuesMetar ALERT Operation Metar Decoded Social comments